Terminal Aerodrome Forecast
Issued by NWS

Home | Current Version | Previous Version | Text Only | Print | Product List | Glossary On
Versions: 1 2 3 4 5 6 7 8 9 10 11 12 13 14 15 16 17
000
FTUS41 KBTV 261124
TAFMPV
TAF
KMPV 261124Z 2612/2712 02003KT P6SM SCT040 OVC150
     FM261700 03003KT 1 1/2SM -SN BR OVC025
     FM262200 34004KT 1/2SM SN FG OVC008
     FM270500 33004KT 1 1/2SM -SN BR OVC025
     FM271100 VRB03KT P6SM OVC015=

USA.gov is the U.S. government's official web portal to all federal, state and local government web resources and services.